Time;durP1;ratioP1;P1;durP2;ratioP2;P2;SDS_P1;SDS_P2;PMS_P1;PMS_P2;Temp;Humidity;BMP_temperature;BMP_pressure;BME280_temperature;BME280_humidity;BME280_pressure;Samples;Min_cycle;Max_cycle;Signal;HPM_P1;HPM_P2
2022/06/30 00:00:00;;;;;;;5.15;4.22;;;22.50;99.40;;;22.61;100.00;100048.09;4963747;28;20063;-77
2022/06/30 00:02:31;;;;;;;6.63;4.13;;;22.40;99.50;;;22.59;100.00;100047.38;4984160;28;20084;-77
2022/06/30 00:04:58;;;;;;;5.70;4.40;;;22.40;99.50;;;22.62;100.00;100048.00;4981155;28;20093;-77
2022/06/30 00:07:25;;;;;;;6.25;3.97;;;22.30;99.60;;;22.66;100.00;100037.88;4980477;28;20158;-77
2022/06/30 00:09:52;;;;;;;4.68;3.95;;;22.30;99.70;;;22.54;100.00;100039.69;4962720;28;20043;-77
2022/06/30 00:12:19;;;;;;;6.65;4.30;;;22.30;99.90;;;22.58;100.00;100043.00;4965048;28;20042;-77
2022/06/30 00:14:46;;;;;;;5.55;4.07;;;22.30;99.90;;;22.50;100.00;100047.16;4985762;28;20050;-77
2022/06/30 00:17:13;;;;;;;7.07;4.43;;;22.20;99.90;;;22.43;100.00;100051.25;4986138;28;20066;-78
2022/06/30 00:19:41;;;;;;;4.22;3.83;;;22.20;99.90;;;22.31;100.00;100045.03;4985150;28;20045;-77
2022/06/30 00:22:08;;;;;;;6.03;4.47;;;22.20;99.70;;;22.28;100.00;100047.09;4968921;28;20056;-77
2022/06/30 00:24:35;;;;;;;6.28;3.78;;;22.10;99.70;;;22.27;100.00;100045.38;4985066;28;20042;-78
2022/06/30 00:27:06;;;;;;;6.25;3.70;;;22.10;99.70;;;22.14;100.00;100042.84;4967604;28;20042;-77
2022/06/30 00:29:33;;;;;;;7.30;4.68;;;22.00;99.90;;;22.15;100.00;100036.50;4968054;28;20038;-77
2022/06/30 00:32:00;;;;;;;8.25;4.75;;;21.90;99.80;;;21.93;100.00;100047.06;4970743;28;20661;-77
2022/06/30 00:34:27;;;;;;;7.30;4.65;;;21.90;99.90;;;21.95;100.00;100047.78;4968804;28;20050;-77
2022/06/30 00:36:55;;;;;;;6.35;3.90;;;21.80;99.90;;;21.83;100.00;100046.03;4982736;28;20041;-77
2022/06/30 00:39:22;;;;;;;4.07;3.78;;;21.70;99.90;;;21.84;100.00;100042.38;4985824;28;20455;-77
2022/06/30 00:41:50;;;;;;;7.60;4.20;;;21.60;99.90;;;21.67;100.00;100044.53;4982827;28;20049;-78
2022/06/30 00:44:17;;;;;;;5.70;4.13;;;21.60;99.90;;;21.66;100.00;100042.84;4961380;28;20042;-78
2022/06/30 00:46:44;;;;;;;7.50;4.68;;;21.50;99.90;;;21.66;100.00;100042.00;4986574;28;20407;-77
2022/06/30 00:49:12;;;;;;;4.13;3.75;;;21.50;99.90;;;21.60;100.00;100043.28;4968601;28;20036;-77
2022/06/30 00:51:39;;;;;;;6.53;4.10;;;21.50;99.90;;;21.54;100.00;100046.41;4974425;28;20399;-78
2022/06/30 00:54:06;;;;;;;5.45;4.45;;;21.40;99.90;;;21.47;100.00;100048.72;4969925;28;20042;-77
2022/06/30 00:56:34;;;;;;;4.68;4.25;;;21.40;99.90;;;21.47;100.00;100048.72;4970835;28;20038;-77
2022/06/30 00:59:04;;;;;;;5.63;4.00;;;21.30;99.90;;;21.34;100.00;100046.09;4976959;28;20038;-77
2022/06/30 01:01:32;;;;;;;;;;;21.20;99.90;;;21.33;100.00;100047.06;4982206;28;20046;-78
2022/06/30 01:04:00;;;;;;;5.60;4.47;;;21.20;99.90;;;21.28;100.00;100046.56;4960830;28;19925;-77
2022/06/30 01:06:28;;;;;;;4.95;4.47;;;21.10;99.90;;;21.38;100.00;100044.88;4979005;28;20121;-77
2022/06/30 01:08:57;;;;;;;5.35;3.80;;;21.10;99.90;;;21.38;100.00;100042.19;4982931;28;20404;-78
2022/06/30 01:14:10;;;;;;;7.10;4.15;;;21.20;99.90;;;21.34;100.00;100043.41;4984461;28;20050;-77
2022/06/30 01:16:40;;;;;;;7.50;4.70;;;21.10;99.90;;;21.31;100.00;100032.06;4994575;28;20054;-77
2022/06/30 01:19:07;;;;;;;5.72;3.88;;;21.10;99.90;;;21.36;100.00;100029.94;4985520;28;20146;-77
2022/06/30 01:21:34;;;;;;;6.80;4.30;;;21.00;99.90;;;21.34;100.00;100026.53;4964793;28;20042;-76
2022/06/30 01:24:02;;;;;;;6.38;4.35;;;21.10;99.90;;;21.31;100.00;100032.06;4983570;28;20046;-77
2022/06/30 01:26:29;;;;;;;7.05;4.28;;;21.00;99.90;;;21.23;100.00;100030.84;4985469;28;20056;-77
2022/06/30 01:28:56;;;;;;;4.13;3.67;;;21.00;99.90;;;21.14;100.00;100026.16;4968061;28;20043;-77
2022/06/30 01:31:24;;;;;;;5.25;3.83;;;21.00;99.90;;;21.03;100.00;100020.78;4967379;28;20447;-77
2022/06/30 01:33:51;;;;;;;4.63;4.20;;;21.00;99.90;;;21.18;100.00;100034.81;4983395;28;20042;-79
2022/06/30 01:36:18;;;;;;;4.53;4.13;;;20.90;99.90;;;21.05;100.00;100029.53;4983417;28;20042;-77
2022/06/30 01:38:45;;;;;;;5.03;4.20;;;20.90;99.90;;;20.98;100.00;100031.81;4981073;28;20039;-77
2022/06/30 01:41:12;;;;;;;6.93;4.10;;;21.50;99.90;;;21.01;100.00;100030.72;4966491;28;20045;-77
2022/06/30 01:43:39;;;;;;;4.78;4.30;;;20.80;99.90;;;20.99;100.00;100025.47;4968029;28;20458;-77
2022/06/30 01:46:06;;;;;;;5.82;4.20;;;20.80;99.90;;;20.95;100.00;100032.88;4966870;28;20049;-78
2022/06/30 01:48:34;;;;;;;8.77;4.28;;;20.80;99.90;;;20.90;100.00;100034.16;4968305;28;20042;-77
2022/06/30 01:51:01;;;;;;;7.05;4.45;;;20.70;99.90;;;20.90;100.00;100036.84;4979319;28;20050;-78
2022/06/30 01:53:28;;;;;;;4.90;3.80;;;20.70;99.90;;;20.84;100.00;100038.16;4984041;28;20045;-78
2022/06/30 01:55:55;;;;;;;5.13;4.35;;;20.70;99.90;;;20.79;100.00;100032.25;4968773;28;21012;-78
2022/06/30 01:58:22;;;;;;;8.00;4.22;;;20.60;99.90;;;20.67;100.00;100036.66;4983994;28;20057;-78
2022/06/30 02:00:49;;;;;;;6.18;4.32;;;20.60;99.90;;;20.60;100.00;100035.38;4982918;28;20046;-78
2022/06/30 02:03:16;;;;;;;4.85;4.32;;;20.50;99.90;;;20.71;100.00;100023.94;4951526;28;20054;-78
2022/06/30 02:05:43;;;;;;;6.60;4.15;;;20.50;99.90;;;20.69;100.00;100026.72;4969715;28;20042;-78
2022/06/30 02:08:10;;;;;;;5.40;4.00;;;20.50;99.90;;;20.65;100.00;100022.56;4984660;28;20061;-79
2022/06/30 02:10:37;;;;;;;5.07;4.53;;;20.50;99.90;;;20.54;100.00;100034.03;4967468;28;20380;-79
2022/06/30 02:13:05;;;;;;;4.78;3.83;;;20.40;99.90;;;20.74;100.00;100027.22;4969433;28;20038;-78
2022/06/30 02:15:33;;;;;;;5.40;3.75;;;20.50;99.90;;;20.63;100.00;100028.00;4980612;28;20096;-77
2022/06/30 02:18:06;;;;;;;6.68;4.07;;;20.40;99.90;;;20.75;100.00;100031.59;4969540;28;20050;-79
2022/06/30 02:20:33;;;;;;;5.50;3.88;;;20.50;99.90;;;20.59;100.00;100029.19;4984502;28;20495;-79
2022/06/30 02:23:03;;;;;;;5.57;4.15;;;20.50;99.90;;;20.49;100.00;100022.78;4975267;28;20046;-78
2022/06/30 02:25:32;;;;;;;4.47;3.90;;;20.30;99.90;;;20.29;100.00;100030.41;4969650;28;20057;-78
2022/06/30 02:28:01;;;;;;;5.85;4.03;;;20.30;99.90;;;20.30;100.00;100029.44;4969454;28;20054;-78
2022/06/30 02:30:29;;;;;;;5.47;4.32;;;20.20;99.90;;;20.19;100.00;100027.53;4951514;28;20050;-78
2022/06/30 02:32:56;;;;;;;5.30;4.50;;;20.10;99.90;;;20.15;100.00;100030.53;4970649;28;20046;-78
2022/06/30 02:35:23;;;;;;;5.40;4.00;;;20.10;99.90;;;20.23;100.00;100025.50;4981876;28;20039;-78
2022/06/30 02:37:50;;;;;;;4.25;3.85;;;20.10;99.90;;;20.23;100.00;100022.84;4974755;28;20514;-78
2022/06/30 02:40:18;;;;;;;4.72;4.00;;;20.00;99.90;;;20.23;100.00;100018.34;4988338;28;20046;-78
2022/06/30 02:42:45;;;;;;;6.28;3.75;;;20.00;99.90;;;20.27;100.00;100022.50;4988552;28;20057;-78
2022/06/30 02:45:12;;;;;;;6.70;3.40;;;20.00;99.90;;;20.28;100.00;100020.69;4985184;28;20049;-78
2022/06/30 02:47:42;;;;;;;5.30;3.88;;;20.00;99.90;;;20.24;100.00;100017.38;4971233;28;20045;-78
2022/06/30 02:50:11;;;;;;;;;;;20.00;99.90;;;20.24;100.00;100030.72;4984709;28;20828;-78
2022/06/30 02:52:39;;;;;;;5.88;4.20;;;19.90;99.90;;;20.01;100.00;100027.00;4988912;28;20016;-78
2022/06/30 02:55:07;;;;;;;5.95;3.85;;;19.90;99.90;;;19.88;100.00;100045.66;4985461;28;20035;-78
2022/06/30 02:57:36;;;;;;;6.80;3.90;;;20.20;99.90;;;19.77;100.00;100041.06;4981766;28;20058;-78
2022/06/30 03:00:09;;;;;;;6.45;3.97;;;19.70;99.90;;;19.86;100.00;100049.38;4970547;28;20042;-78
2022/06/30 03:02:36;;;;;;;5.35;4.05;;;19.70;99.90;;;20.01;100.00;100040.34;4969933;28;20134;-78
2022/06/30 03:05:04;;;;;;;5.10;3.97;;;19.70;99.90;;;19.98;100.00;100040.56;4989686;28;20050;-79
2022/06/30 03:07:31;;;;;;;5.25;4.15;;;19.70;99.90;;;19.94;100.00;100042.59;4985912;28;20050;-78
2022/06/30 03:09:58;;;;;;;4.70;3.95;;;19.70;99.90;;;19.94;100.00;100047.09;4991146;28;20049;-78
2022/06/30 03:12:25;;;;;;;4.18;3.85;;;19.70;99.90;;;19.92;100.00;100047.19;4968659;28;20039;-78
2022/06/30 03:14:52;;;;;;;5.10;3.80;;;19.70;99.90;;;19.82;100.00;100051.38;4982241;28;20416;-78
2022/06/30 03:17:19;;;;;;;4.63;4.10;;;19.70;99.90;;;19.81;100.00;100047.88;4972098;28;20057;-78
2022/06/30 03:19:46;;;;;;;5.30;4.30;;;19.70;99.90;;;19.80;100.00;100051.50;4978283;28;20066;-78
2022/06/30 03:22:13;;;;;;;4.20;3.80;;;19.70;99.90;;;19.77;100.00;100034.84;4985967;28;20512;-79
2022/06/30 03:24:40;;;;;;;5.97;3.97;;;19.60;99.90;;;19.78;100.00;100033.88;4987698;28;20488;-78
2022/06/30 03:27:07;;;;;;;4.82;4.22;;;19.60;99.90;;;19.76;100.00;100041.13;4971107;28;20045;-78
2022/06/30 03:29:34;;;;;;;6.40;3.85;;;19.60;99.90;;;19.68;100.00;100049.66;4987648;28;20042;-78
2022/06/30 03:32:01;;;;;;;6.10;4.50;;;19.60;99.90;;;19.66;100.00;100040.91;4954320;28;20049;-78
2022/06/30 03:34:28;;;;;;;6.28;4.22;;;19.50;99.90;;;19.74;100.00;100040.41;4987834;28;20981;-78
2022/06/30 03:36:55;;;;;;;5.57;4.57;;;19.50;99.90;;;19.69;100.00;100033.56;4970569;28;20046;-78
2022/06/30 03:39:22;;;;;;;4.55;4.13;;;19.50;99.90;;;19.58;100.00;100045.91;4987261;28;20042;-78
2022/06/30 03:41:49;;;;;;;5.43;3.83;;;19.40;99.90;;;19.59;100.00;100047.59;4970159;28;20050;-78
2022/06/30 03:44:16;;;;;;;4.30;3.60;;;19.40;99.90;;;19.53;100.00;100051.56;4988383;28;20590;-78
2022/06/30 03:46:43;;;;;;;6.97;4.18;;;19.40;99.90;;;19.49;100.00;100056.25;4988723;28;20065;-79
2022/06/30 03:49:11;;;;;;;7.07;4.30;;;19.40;99.90;;;19.58;100.00;100053.91;4999310;28;20054;-79
2022/06/30 03:51:38;;;;;;;4.82;4.18;;;19.40;99.90;;;19.62;100.00;100052.75;4985420;28;21439;-78
2022/06/30 03:54:05;;;;;;;5.80;4.32;;;19.40;99.90;;;19.63;100.00;100051.81;4954309;28;20042;-78
2022/06/30 03:56:32;;;;;;;4.88;4.20;;;19.40;99.90;;;19.71;100.00;100052.13;4982838;28;20053;-77
2022/06/30 03:58:59;;;;;;;4.90;4.50;;;19.40;99.90;;;19.68;100.00;100053.22;4968529;28;20054;-76
2022/06/30 04:01:26;;;;;;;5.13;4.13;;;19.40;99.90;;;19.55;100.00;100047.81;4981711;28;20049;-77
2022/06/30 04:03:53;;;;;;;4.88;4.28;;;19.40;99.90;;;19.56;100.00;100046.03;4969431;28;20042;-77
2022/06/30 04:06:20;;;;;;;6.07;4.22;;;19.40;99.90;;;19.61;100.00;100035.88;4952438;28;20069;-77
2022/06/30 04:08:47;;;;;;;6.15;4.15;;;19.40;99.90;;;19.63;100.00;100041.13;4982363;28;20129;-77
2022/06/30 04:11:14;;;;;;;4.75;4.35;;;19.40;99.90;;;19.65;100.00;100049.88;4969576;28;20046;-77
2022/06/30 04:13:41;;;;;;;6.10;4.47;;;19.40;99.90;;;19.60;100.00;100042.19;4985565;28;20034;-77
2022/06/30 04:16:08;;;;;;;5.25;4.30;;;19.50;99.90;;;19.67;100.00;100032.81;4984977;28;20053;-77
2022/06/30 04:18:39;;;;;;;6.47;5.10;;;19.40;99.90;;;19.65;100.00;100033.88;4986735;28;20046;-78
2022/06/30 04:21:06;;;;;;;5.25;4.35;;;19.40;99.90;;;19.74;100.00;100040.41;4981816;28;20759;-77
2022/06/30 04:23:33;;;;;;;5.63;4.38;;;19.40;99.90;;;19.74;100.00;100043.91;4953910;28;20070;-77
2022/06/30 04:26:00;;;;;;;6.38;4.35;;;19.50;99.90;;;19.85;100.00;100037.84;4969930;28;20061;-77
2022/06/30 04:28:27;;;;;;;5.22;4.72;;;19.50;99.90;;;19.79;100.00;100039.13;4984774;28;20041;-77
2022/06/30 04:33:39;;;;;;;5.10;4.55;;;19.50;99.90;;;19.83;100.00;100037.13;4980643;28;20042;-79
2022/06/30 04:36:06;;;;;;;10.63;4.97;;;19.50;99.90;;;19.88;100.00;100029.63;4985857;28;20042;-79
2022/06/30 04:38:33;;;;;;;8.20;5.20;;;19.60;99.90;;;19.94;100.00;100036.41;4953681;28;20042;-78
2022/06/30 04:43:46;;;;;;;10.45;5.40;;;19.60;99.90;;;20.09;100.00;100039.81;4985914;28;20053;-78
2022/06/30 04:46:13;;;;;;;5.60;4.75;;;19.80;99.90;;;20.14;100.00;100042.16;4983200;28;20042;-77
2022/06/30 04:48:40;;;;;;;6.15;4.82;;;19.80;99.90;;;20.16;100.00;100037.56;4952644;28;20389;-77
2022/06/30 04:51:08;;;;;;;6.32;5.05;;;19.80;99.90;;;20.15;100.00;100041.22;4952142;28;20061;-77
2022/06/30 04:53:35;;;;;;;5.70;4.90;;;19.90;99.90;;;20.28;100.00;100034.06;4968563;28;20038;-76
2022/06/30 04:56:02;;;;;;;5.00;4.55;;;19.90;99.90;;;20.33;100.00;100025.72;4980956;28;20050;-76
2022/06/30 04:58:29;;;;;;;4.78;4.38;;;19.90;99.90;;;20.39;100.00;100035.97;4982398;28;20065;-76
2022/06/30 05:00:56;;;;;;;5.68;4.40;;;20.00;99.90;;;20.42;100.00;100024.22;4970051;28;20049;-77
2022/06/30 05:03:23;;;;;;;9.15;4.88;;;20.00;99.90;;;20.41;100.00;100028.69;4983617;28;20045;-78
2022/06/30 05:05:50;;;;;;;6.82;4.50;;;20.00;99.90;;;20.47;100.00;100022.91;4980849;28;20043;-78
2022/06/30 05:08:17;;;;;;;7.32;4.25;;;20.00;99.90;;;20.51;100.00;100027.06;4982005;28;20042;-76
2022/06/30 05:10:44;;;;;;;8.32;4.60;;;19.40;99.90;;;20.49;100.00;100021.00;4974280;28;20624;-76
2022/06/30 05:13:11;;;;;;;7.20;4.75;;;20.10;99.90;;;20.54;100.00;100028.69;4981186;28;20053;-78
2022/06/30 05:15:38;;;;;;;5.43;4.93;;;20.20;99.90;;;20.65;100.00;100019.88;4979753;28;20762;-77
2022/06/30 05:18:05;;;;;;;6.75;4.90;;;20.20;99.90;;;20.66;100.00;100021.59;4963634;28;20051;-76
2022/06/30 05:20:33;;;;;;;6.60;5.13;;;20.30;99.90;;;20.74;100.00;100027.22;4980070;28;20038;-77
2022/06/30 05:23:00;;;;;;;7.93;4.65;;;20.30;99.90;;;20.79;100.00;100019.75;4968715;28;20061;-76
2022/06/30 05:28:13;;;;;;;6.47;4.30;;;20.40;99.90;;;20.87;100.00;100013.88;4979364;28;20047;-77
2022/06/30 05:30:41;;;;;;;11.23;5.25;;;20.50;99.90;;;20.91;100.00;100006.47;4966995;28;20436;-77
2022/06/30 05:33:09;;;;;;;9.75;4.68;;;20.50;99.90;;;20.95;100.00;100007.97;4966919;28;20516;-77
2022/06/30 05:35:36;;;;;;;6.20;4.90;;;20.50;99.90;;;21.06;100.00;100010.69;4979622;28;20046;-77
2022/06/30 05:38:03;;;;;;;9.52;4.88;;;20.60;99.90;;;21.12;100.00;100009.38;4981346;28;20050;-77
2022/06/30 05:40:30;;;;;;;4.85;4.00;;;20.70;99.90;;;21.15;100.00;100001.16;4978011;28;20042;-77
2022/06/30 05:42:57;;;;;;;7.30;5.07;;;20.70;99.90;;;21.17;100.00;100007.22;4976401;28;20122;-77
2022/06/30 05:45:24;;;;;;;7.38;4.60;;;20.80;99.90;;;21.27;100.00;100009.19;4980068;28;20035;-76
2022/06/30 05:47:53;;;;;;;4.38;3.97;;;20.80;99.90;;;21.31;100.00;100006.19;4979741;28;20046;-77
2022/06/30 05:50:22;;;;;;;4.97;4.47;;;20.60;99.90;;;21.37;100.00;99996.84;4966272;28;20529;-77
2022/06/30 05:52:51;;;;;;;7.93;4.18;;;20.90;99.90;;;21.46;100.00;99998.81;4960803;28;20050;-77
2022/06/30 05:55:19;;;;;;;6.32;3.92;;;20.90;99.90;;;21.48;100.00;100012.94;4966360;28;20962;-77
2022/06/30 05:57:57;;;;;;;6.65;4.55;;;21.00;99.90;;;21.51;100.00;100001.13;4966929;28;20669;-77
2022/06/30 06:00:28;;;;;;;6.82;3.92;;;21.10;99.90;;;21.55;100.00;100002.63;4978996;28;20061;-77
2022/06/30 06:02:56;;;;;;;5.28;3.90;;;21.10;99.90;;;21.62;100.00;99997.63;4981240;28;20053;-77
2022/06/30 06:05:23;;;;;;;6.10;4.18;;;21.30;99.90;;;21.64;100.00;100001.91;4965453;28;20030;-77
2022/06/30 06:07:51;;;;;;;7.63;4.03;;;21.20;99.90;;;21.72;100.00;99998.69;4981782;28;20047;-78
2022/06/30 06:10:19;;;;;;;4.85;3.70;;;21.20;99.90;;;21.83;100.00;99991.66;4982727;28;20034;-77
2022/06/30 06:12:46;;;;;;;5.35;3.88;;;21.30;99.90;;;21.92;100.00;99991.78;4980915;28;21230;-77
2022/06/30 06:15:15;;;;;;;7.30;3.70;;;21.30;99.90;;;22.01;100.00;100002.75;4968322;28;20399;-77
2022/06/30 06:17:44;;;;;;;5.95;4.00;;;21.40;99.90;;;22.07;100.00;100005.78;4980538;28;20047;-77
2022/06/30 06:20:15;;;;;;;7.13;3.92;;;21.50;99.90;;;22.14;100.00;99997.28;4984018;28;20050;-78
2022/06/30 06:22:43;;;;;;;4.43;3.40;;;21.60;99.90;;;22.16;100.00;99995.34;4967828;28;20038;-77
2022/06/30 06:25:10;;;;;;;5.70;3.40;;;21.60;99.90;;;22.28;100.00;100006.91;4982323;28;20049;-77
2022/06/30 06:27:38;;;;;;;6.78;3.97;;;21.70;99.90;;;22.31;100.00;100001.28;4969011;28;20042;-77
2022/06/30 06:30:07;;;;;;;5.03;3.92;;;21.80;99.90;;;22.31;100.00;99999.47;4977971;28;20770;-77
2022/06/30 06:32:36;;;;;;;5.63;3.90;;;21.80;99.90;;;22.37;100.00;100009.69;4980793;28;20047;-78
2022/06/30 06:35:06;;;;;;;5.95;4.43;;;21.80;99.90;;;22.44;100.00;100003.88;4967400;28;20495;-78
2022/06/30 06:37:38;;;;;;;8.65;3.85;;;21.90;99.90;;;22.53;100.00;100005.81;4969375;28;20065;-77
2022/06/30 06:40:06;;;;;;;8.50;4.18;;;22.00;99.90;;;22.62;100.00;100013.13;4958497;28;20045;-78
2022/06/30 06:42:33;;;;;;;5.72;3.35;;;22.00;99.90;;;22.64;100.00;100011.19;4969557;28;20166;-77
2022/06/30 06:45:10;;;;;;;3.63;3.33;;;22.10;99.60;;;22.76;100.00;100012.00;4977521;28;20038;-77
2022/06/30 06:47:37;;;;;;;5.43;3.83;;;22.20;99.50;;;22.78;100.00;100012.72;4983944;28;20086;-78
2022/06/30 06:50:07;;;;;;;5.25;3.17;;;22.20;99.00;;;22.89;100.00;100011.88;4965598;28;20081;-77
2022/06/30 06:52:34;;;;;;;6.82;3.78;;;22.40;98.80;;;22.98;100.00;100004.91;4968356;28;20045;-77
2022/06/30 06:55:03;;;;;;;7.88;3.53;;;22.40;98.60;;;23.04;100.00;100003.56;4964952;28;20042;-78
2022/06/30 06:57:38;;;;;;;4.60;3.22;;;22.50;98.50;;;23.16;100.00;100002.50;4984066;28;20388;-78
2022/06/30 07:00:09;;;;;;;7.50;4.00;;;22.50;98.50;;;23.23;100.00;99994.81;4964757;28;20057;-77
2022/06/30 07:02:36;;;;;;;5.78;4.35;;;22.60;98.30;;;23.28;100.00;99995.31;4979559;28;21233;-78
2022/06/30 07:05:04;;;;;;;5.80;3.30;;;22.70;98.20;;;23.41;100.00;99981.72;4981302;28;20054;-78
2022/06/30 07:07:34;;;;;;;;;;;22.80;98.20;;;23.47;100.00;99985.72;4955679;28;20054;-77
2022/06/30 07:10:06;;;;;;;6.68;3.50;;;22.80;98.10;;;23.53;100.00;99993.22;4962962;28;19925;-77
2022/06/30 07:12:34;;;;;;;8.10;3.53;;;22.90;97.90;;;23.59;100.00;99991.88;4983402;28;20052;-77
2022/06/30 07:15:01;;;;;;;3.78;3.10;;;22.90;97.90;;;23.65;100.00;99988.69;4954866;28;20046;-77
2022/06/30 07:17:28;;;;;;;6.55;3.30;;;23.00;97.80;;;23.72;100.00;99988.97;4982437;28;20043;-77
2022/06/30 07:19:55;;;;;;;6.65;3.30;;;23.10;97.70;;;23.87;100.00;99987.66;4968066;28;20070;-78
2022/06/30 07:22:23;;;;;;;4.85;3.50;;;23.20;98.00;;;23.94;100.00;99987.97;4978991;28;20050;-77
2022/06/30 07:24:50;;;;;;;7.60;3.33;;;23.30;97.90;;;24.00;100.00;99992.84;4971909;28;21044;-77
2022/06/30 07:27:17;;;;;;;4.10;3.35;;;23.40;97.80;;;24.09;100.00;99991.22;4971070;28;20125;-78
2022/06/30 07:29:44;;;;;;;5.60;3.88;;;23.50;97.70;;;24.17;100.00;100002.13;4971325;28;20034;-77
2022/06/30 07:32:13;;;;;;;4.38;3.13;;;23.60;97.60;;;24.23;100.00;99992.69;4953794;28;20101;-77
2022/06/30 07:34:40;;;;;;;3.45;2.92;;;23.60;97.60;;;24.33;100.00;99990.88;4968266;28;20133;-77
2022/06/30 07:37:07;;;;;;;6.57;2.95;;;23.70;97.60;;;24.41;100.00;99987.53;4985103;28;20038;-78
2022/06/30 07:39:34;;;;;;;6.60;3.45;;;23.80;97.70;;;24.50;100.00;99986.69;4984459;28;20074;-77
2022/06/30 07:42:01;;;;;;;5.88;2.88;;;23.80;97.60;;;24.70;100.00;99981.38;4983760;28;20038;-77
2022/06/30 07:44:28;;;;;;;5.22;2.83;;;24.00;97.40;;;24.73;100.00;99982.91;4983289;28;20121;-77
2022/06/30 07:46:56;;;;;;;5.38;2.88;;;24.10;96.80;;;24.78;100.00;99981.56;4980163;28;20065;-77
2022/06/30 07:49:23;;;;;;;4.85;3.08;;;24.10;96.80;;;24.87;100.00;99973.66;4981417;28;20055;-77
2022/06/30 07:51:52;;;;;;;4.53;3.08;;;24.20;96.90;;;24.94;100.00;99977.47;4952295;28;20061;-75
2022/06/30 07:54:20;;;;;;;6.45;3.30;;;24.30;96.80;;;25.06;100.00;99978.22;4982642;28;20403;-75
2022/06/30 07:56:48;;;;;;;7.97;3.65;;;24.40;96.70;;;25.13;100.00;99973.94;4961146;28;20055;-75
2022/06/30 07:59:15;;;;;;;4.85;3.03;;;24.50;96.20;;;25.20;100.00;99974.22;4981196;28;20053;-75
2022/06/30 08:01:42;;;;;;;4.35;3.33;;;24.50;96.20;;;25.25;100.00;99976.50;4980997;28;20046;-77
2022/06/30 08:04:11;;;;;;;3.95;2.60;;;24.60;96.20;;;25.31;100.00;99974.09;4979819;28;20055;-76
2022/06/30 08:06:38;;;;;;;7.75;3.65;;;24.70;96.00;;;25.34;100.00;99971.09;4967377;28;20041;-77
2022/06/30 08:09:05;;;;;;;6.18;3.28;;;24.70;96.10;;;25.49;100.00;99979.63;4978612;28;20042;-77
2022/06/30 08:11:32;;;;;;;6.00;3.40;;;24.80;95.80;;;25.56;100.00;99979.91;4983944;28;20034;-77
2022/06/30 08:14:00;;;;;;;5.85;3.00;;;24.80;95.80;;;25.61;100.00;99980.34;4981082;28;20042;-78
2022/06/30 08:16:27;;;;;;;4.18;2.63;;;24.90;96.10;;;25.68;100.00;99974.34;4983911;28;20054;-77
2022/06/30 08:19:00;;;;;;;4.43;3.10;;;25.00;95.70;;;25.72;100.00;99970.38;4984424;28;20128;-79
2022/06/30 08:21:27;;;;;;;3.33;2.78;;;25.10;95.50;;;25.80;100.00;99970.50;4987128;28;20562;-79
2022/06/30 08:23:55;;;;;;;2.72;2.40;;;25.10;95.30;;;25.86;100.00;99969.91;4968197;28;20480;-79
2022/06/30 08:26:22;;;;;;;4.95;3.08;;;25.20;94.80;;;25.98;100.00;99964.34;4955296;28;20046;-80
2022/06/30 08:28:49;;;;;;;4.00;2.85;;;25.30;95.10;;;26.10;100.00;99970.41;4981620;28;20035;-79
2022/06/30 08:31:16;;;;;;;3.25;2.67;;;25.30;95.00;;;26.15;100.00;99955.47;4971627;28;20054;-78
2022/06/30 08:33:43;;;;;;;4.50;2.67;;;25.40;94.20;;;26.23;100.00;99962.84;4983043;28;20045;-79
2022/06/30 08:36:11;;;;;;;4.55;2.85;;;25.50;94.60;;;26.26;100.00;99948.25;4962951;28;20488;-79
2022/06/30 08:38:38;;;;;;;4.10;2.67;;;25.60;94.70;;;26.31;100.00;99948.63;4988502;28;20070;-80
2022/06/30 08:43:52;;;;;;;3.88;3.05;;;25.70;94.00;;;26.48;100.00;99942.44;4985846;28;20057;-80
2022/06/30 08:46:23;;;;;;;4.20;3.05;;;25.70;94.20;;;26.56;100.00;99938.97;4987729;28;20832;-79
2022/06/30 08:48:50;;;;;;;2.97;2.70;;;25.80;94.00;;;26.63;98.33;99943.78;5000379;28;20106;-80
2022/06/30 08:51:20;;;;;;;6.75;3.53;;;25.90;93.60;;;26.69;96.19;99941.28;4990503;28;20050;-79
2022/06/30 08:53:56;;;;;;;3.30;3.00;;;25.90;93.50;;;26.78;96.05;99934.16;4969129;28;20069;-81
2022/06/30 08:56:28;;;;;;;3.60;2.80;;;26.00;93.40;;;26.81;94.00;99941.06;4983745;28;20049;-78
2022/06/30 08:58:56;;;;;;;6.10;3.08;;;26.10;93.00;;;26.95;91.38;99937.03;4971221;28;20638;-80
2022/06/30 09:01:25;;;;;;;4.13;2.95;;;26.20;92.90;;;26.90;92.33;99940.19;4972442;28;20046;-79
2022/06/30 09:03:53;;;;;;;3.20;2.60;;;26.20;92.90;;;26.97;90.12;99932.34;4979082;28;20113;-80
2022/06/30 09:06:20;;;;;;;6.28;3.10;;;26.30;92.60;;;27.05;86.47;99935.09;4980628;28;20043;-84
2022/06/30 09:09:05;;;;;;;5.70;3.20;;;26.40;92.20;;;27.08;88.53;99939.34;4954254;28;20623;-80
2022/06/30 09:11:56;;;;;;;5.10;3.47;;;26.40;92.30;;;27.14;92.33;99934.16;4992163;28;20096;-77
2022/06/30 09:14:36;;;;;;;5.18;2.97;;;26.40;92.60;;;27.29;92.11;99931.75;4989351;28;20499;-77
2022/06/30 09:17:09;;;;;;;4.15;2.95;;;26.50;92.70;;;27.39;81.67;99928.13;4988481;28;20069;-77
2022/06/30 09:19:49;;;;;;;3.22;2.92;;;26.60;91.60;;;27.51;83.99;99918.75;4974428;28;20052;-76
2022/06/30 09:22:16;;;;;;;3.92;2.70;;;26.80;91.90;;;27.59;79.64;99916.13;4992776;28;20060;-78
2022/06/30 09:24:44;;;;;;;4.32;2.45;;;26.80;91.30;;;27.70;75.07;99922.28;4986707;28;20074;-78
2022/06/30 09:27:21;;;;;;;2.83;2.53;;;26.90;90.70;;;27.71;76.11;99916.72;4971670;28;20054;-77
2022/06/30 09:30:08;;;;;;;5.18;2.60;;;27.00;90.80;;;27.96;80.13;99914.13;4969102;28;20073;-80
2022/06/30 09:32:54;;;;;;;8.40;3.30;;;27.10;91.30;;;27.93;75.34;99914.47;4987753;28;20031;-78
2022/06/30 09:35:24;;;;;;;5.18;2.78;;;27.20;90.60;;;27.90;79.49;99914.78;4981445;28;20046;-79
2022/06/30 09:38:08;;;;;;;5.47;2.80;;;27.20;90.90;;;27.87;78.36;99909.72;4973789;28;20060;-79
2022/06/30 09:43:36;;;;;;;3.10;2.17;;;27.30;89.20;;;28.28;66.60;99909.06;4977206;28;20050;-79
2022/06/30 09:46:05;;;;;;;3.05;2.28;;;27.40;88.70;;;28.49;72.47;99903.22;4986506;28;20598;-79
2022/06/30 09:48:33;;;;;;;3.75;2.85;;;27.60;90.10;;;28.74;66.74;99911.34;4930930;28;20042;-78
2022/06/30 09:51:03;;;;;;;8.68;3.17;;;27.80;88.90;;;28.79;62.70;99900.88;4984202;28;20046;-79
2022/06/30 09:53:31;;;;;;;4.05;2.65;;;28.00;87.30;;;28.88;60.89;99901.78;4987798;28;20080;-79
2022/06/30 09:56:14;;;;;;;3.95;2.83;;;28.10;86.30;;;29.21;61.43;99900.91;4972604;28;20064;-78
2022/06/30 09:58:43;;;;;;;3.58;3.00;;;28.30;86.50;;;29.35;62.93;99892.09;4969491;28;20114;-78
2022/06/30 10:01:11;;;;;;;4.03;2.50;;;28.50;87.00;;;29.53;55.23;99901.91;4971197;28;20050;-78
2022/06/30 10:04:01;;;;;;;4.07;2.28;;;28.70;83.90;;;29.52;53.42;99900.22;4981052;28;20054;-78
2022/06/30 10:06:28;;;;;;;3.95;2.50;;;28.80;82.50;;;29.56;54.56;99890.72;4983401;28;20038;-80
2022/06/30 10:08:56;;;;;;;5.40;3.20;;;28.90;82.50;;;29.56;54.62;99885.31;4983111;28;20043;-80
2022/06/30 10:11:24;;;;;;;3.42;2.40;;;28.40;82.00;;;29.55;56.73;99879.06;4984692;28;20078;-79
2022/06/30 10:13:52;;;;;;;7.28;2.75;;;28.90;82.90;;;29.66;54.82;99887.81;4966994;28;20054;-78
2022/06/30 10:16:22;;;;;;;3.08;2.10;;;28.90;81.90;;;29.77;50.88;99887.44;4981856;28;20052;-78
2022/06/30 10:18:50;;;;;;;4.65;2.97;;;29.10;79.90;;;29.89;49.67;99887.91;4963979;28;20038;-78
2022/06/30 10:21:21;;;;;;;5.03;2.40;;;29.20;79.30;;;29.92;50.45;99874.03;4969367;28;20507;-78
2022/06/30 10:23:50;;;;;;;3.80;2.50;;;29.20;79.80;;;30.13;49.34;99870.75;4962047;28;20505;-79
2022/06/30 10:29:04;;;;;;;5.70;2.33;;;29.40;79.70;;;30.47;48.72;99873.25;4986970;28;20140;-79
2022/06/30 10:31:46;;;;;;;;;;;29.60;77.90;;;30.46;45.64;99875.13;4956962;28;20056;-79
2022/06/30 10:34:25;;;;;;;3.40;2.85;;;29.70;75.90;;;30.53;47.00;99869.81;4985126;28;19932;-79